Time;durP1;ratioP1;P1;durP2;ratioP2;P2;SDS_P1;SDS_P2;PMS_P1;PMS_P2;Temp;Humidity;BMP_temperature;BMP_pressure;BME280_temperature;BME280_humidity;BME280_pressure;Samples;Min_cycle;Max_cycle;Signal;HPM_P1;HPM_P2
2022/05/15 00:02:11;;;;;;;7.77;6.53;;;14.80;99.90;;;;;;5033691;28;20212;-76
2022/05/15 00:04:38;;;;;;;7.93;5.63;;;14.80;99.90;;;;;;5029819;28;20351;-75
2022/05/15 00:07:06;;;;;;;7.53;5.87;;;14.80;99.90;;;;;;5029362;28;20217;-76
2022/05/15 00:09:33;;;;;;;10.30;5.93;;;14.70;99.90;;;;;;5028716;28;20232;-75
2022/05/15 00:12:02;;;;;;;8.37;5.10;;;14.70;99.90;;;;;;5029945;28;20197;-76
2022/05/15 00:14:29;;;;;;;11.63;5.50;;;14.60;99.90;;;;;;5039171;28;20694;-76
2022/05/15 00:16:56;;;;;;;9.27;5.10;;;14.60;99.90;;;;;;5049840;28;21061;-76
2022/05/15 00:19:24;;;;;;;7.27;5.00;;;14.50;99.90;;;;;;5044446;28;20232;-76
2022/05/15 00:21:52;;;;;;;7.20;4.97;;;14.50;99.90;;;;;;5029534;28;20217;-76
2022/05/15 00:24:19;;;;;;;7.00;4.93;;;14.50;99.90;;;;;;5029204;28;20247;-75
2022/05/15 00:26:46;;;;;;;8.93;5.10;;;14.50;99.90;;;;;;5029685;28;20216;-76
2022/05/15 00:29:13;;;;;;;6.60;5.07;;;14.40;99.90;;;;;;5039048;28;20796;-75
2022/05/15 00:31:40;;;;;;;9.07;5.23;;;14.40;99.90;;;;;;5037383;28;20270;-75
2022/05/15 00:34:07;;;;;;;8.80;5.33;;;14.30;99.90;;;;;;5049420;28;20206;-75
2022/05/15 00:36:35;;;;;;;7.60;5.33;;;14.30;99.90;;;;;;5043798;28;20258;-75
2022/05/15 00:39:02;;;;;;;10.43;5.40;;;14.30;99.90;;;;;;5029274;28;20208;-75
2022/05/15 00:41:29;;;;;;;7.00;4.63;;;14.20;99.90;;;;;;5029495;28;20319;-76
2022/05/15 00:43:57;;;;;;;8.17;5.17;;;14.20;99.90;;;;;;5034191;28;20266;-76
2022/05/15 00:46:28;;;;;;;7.13;5.00;;;14.10;99.90;;;;;;5048951;28;20717;-75
2022/05/15 00:48:56;;;;;;;9.73;4.90;;;14.10;99.90;;;;;;5048931;28;20669;-75
2022/05/15 00:51:27;;;;;;;6.93;5.10;;;14.20;99.90;;;;;;5048398;28;20727;-75
2022/05/15 00:53:59;;;;;;;7.43;5.10;;;14.10;99.90;;;;;;5048844;28;20698;-75
2022/05/15 00:56:29;;;;;;;7.53;5.30;;;14.10;99.90;;;;;;5048911;28;20199;-76
2022/05/15 00:59:00;;;;;;;9.47;5.17;;;14.00;99.90;;;;;;5048663;28;20218;-76
2022/05/15 01:01:27;;;;;;;6.13;5.00;;;13.90;99.90;;;;;;5048608;28;20700;-75
2022/05/15 01:03:54;;;;;;;5.20;4.70;;;13.90;99.90;;;;;;5048767;28;20200;-75
2022/05/15 01:06:21;;;;;;;9.07;5.70;;;13.90;99.90;;;;;;5048531;28;20208;-76
2022/05/15 01:08:47;;;;;;;9.30;5.53;;;13.80;99.90;;;;;;5048784;28;20204;-75
2022/05/15 01:11:19;;;;;;;7.97;4.83;;;13.80;99.90;;;;;;5048364;28;20224;-76
2022/05/15 01:13:48;;;;;;;10.07;5.33;;;13.80;99.90;;;;;;5034223;28;20235;-72
2022/05/15 01:16:18;;;;;;;7.33;4.43;;;13.80;99.90;;;;;;5041227;28;20204;-72
2022/05/15 01:18:47;;;;;;;5.17;4.23;;;13.70;99.90;;;;;;5037362;28;20236;-72
2022/05/15 01:21:24;;;;;;;4.77;3.77;;;13.70;99.90;;;;;;5048184;28;20212;-76
2022/05/15 01:23:52;;;;;;;6.93;3.57;;;13.60;99.90;;;;;;5035684;28;20261;-77
2022/05/15 01:26:19;;;;;;;5.77;3.77;;;13.70;99.90;;;;;;5044740;28;20213;-78
2022/05/15 01:28:46;;;;;;;7.07;4.20;;;13.70;99.90;;;;;;5028130;28;20216;-76
2022/05/15 01:31:13;;;;;;;6.30;3.97;;;13.60;99.90;;;;;;5028047;28;20228;-76
2022/05/15 01:33:40;;;;;;;5.93;4.00;;;13.60;99.90;;;;;;5039209;28;20209;-76
2022/05/15 01:36:08;;;;;;;5.43;3.63;;;13.60;99.90;;;;;;5048042;28;20666;-76
2022/05/15 01:38:36;;;;;;;4.00;3.57;;;13.50;99.90;;;;;;5047684;28;20670;-76
2022/05/15 01:41:12;;;;;;;6.70;4.10;;;13.40;99.90;;;;;;5047919;28;20208;-76
2022/05/15 01:43:39;;;;;;;7.00;4.13;;;13.40;99.90;;;;;;5032739;28;20265;-76
2022/05/15 01:46:09;;;;;;;7.07;3.67;;;13.40;99.90;;;;;;5027607;28;20749;-75
2022/05/15 01:48:35;;;;;;;6.83;4.10;;;13.40;99.90;;;;;;5048395;28;20254;-79
2022/05/15 01:51:10;;;;;;;4.60;3.53;;;13.40;99.90;;;;;;5048267;28;20231;-75
2022/05/15 01:53:38;;;;;;;4.37;3.47;;;13.40;99.90;;;;;;5046922;28;20207;-75
2022/05/15 01:56:07;;;;;;;5.20;3.80;;;13.30;99.90;;;;;;5028300;28;20204;-75
2022/05/15 01:58:34;;;;;;;4.30;3.60;;;13.30;99.90;;;;;;5030261;28;20274;-75
2022/05/15 02:01:01;;;;;;;5.80;3.57;;;13.20;99.90;;;;;;5047958;28;20219;-75
2022/05/15 02:03:28;;;;;;;6.63;3.17;;;13.20;99.90;;;;;;5048021;28;20216;-75
2022/05/15 02:05:54;;;;;;;7.17;3.90;;;13.20;99.90;;;;;;5048118;28;20211;-75
2022/05/15 02:08:21;;;;;;;5.43;3.93;;;13.20;99.90;;;;;;5047189;28;20574;-75
2022/05/15 02:10:49;;;;;;;5.50;3.50;;;13.20;99.90;;;;;;5047268;28;20231;-75
2022/05/15 02:13:16;;;;;;;5.33;3.77;;;13.20;99.90;;;;;;5047336;28;20250;-75
2022/05/15 02:15:43;;;;;;;5.70;3.60;;;13.10;99.90;;;;;;5028205;28;20213;-75
2022/05/15 02:18:09;;;;;;;5.60;3.57;;;13.10;99.90;;;;;;5027471;28;20286;-76
2022/05/15 02:20:37;;;;;;;4.70;3.97;;;13.00;99.90;;;;;;5034933;28;20258;-75
2022/05/15 02:23:04;;;;;;;5.13;3.40;;;13.10;99.90;;;;;;5038419;28;20303;-75
2022/05/15 02:25:31;;;;;;;6.63;3.43;;;13.10;99.90;;;;;;5027842;28;20228;-75
2022/05/15 02:28:00;;;;;;;6.70;3.73;;;13.00;99.90;;;;;;5027700;28;20204;-75
2022/05/15 02:30:27;;;;;;;5.23;3.20;;;12.90;99.90;;;;;;5044051;28;20240;-78
2022/05/15 02:32:54;;;;;;;5.07;3.17;;;13.00;99.90;;;;;;5051484;28;20208;-82
2022/05/15 02:35:21;;;;;;;6.03;3.33;;;12.90;99.90;;;;;;5051444;28;20214;-76
2022/05/15 02:37:48;;;;;;;6.93;3.43;;;12.90;99.90;;;;;;5051621;28;20262;-76
2022/05/15 02:40:18;;;;;;;4.17;3.23;;;12.80;99.90;;;;;;5051193;28;20654;-76
2022/05/15 02:42:45;;;;;;;3.50;3.20;;;12.80;99.90;;;;;;5051168;28;20204;-78
2022/05/15 02:45:13;;;;;;;7.60;3.17;;;12.80;99.90;;;;;;5051749;28;20208;-78
2022/05/15 02:47:40;;;;;;;4.23;3.40;;;12.80;99.90;;;;;;5051917;28;20211;-78
2022/05/15 02:52:53;;;;;;;5.10;3.37;;;12.60;99.90;;;;;;5051392;28;20202;-76
2022/05/15 02:55:21;;;;;;;4.10;3.13;;;12.60;99.90;;;;;;5051182;28;20219;-76
2022/05/15 02:57:48;;;;;;;4.17;3.03;;;12.50;99.90;;;;;;5051325;28;20261;-76
2022/05/15 03:00:17;;;;;;;6.77;3.73;;;12.50;99.90;;;;;;5051199;28;20255;-76
2022/05/15 03:02:43;;;;;;;3.57;3.13;;;12.50;99.90;;;;;;5051028;28;20230;-76
2022/05/15 03:05:12;;;;;;;6.27;3.73;;;12.50;99.90;;;;;;5050961;28;20787;-76
2022/05/15 03:07:39;;;;;;;7.30;3.83;;;12.50;99.90;;;;;;5051393;28;20212;-76
2022/05/15 03:10:08;;;;;;;4.23;3.17;;;12.50;99.90;;;;;;5051012;28;20314;-76
2022/05/15 03:12:34;;;;;;;3.17;2.50;;;12.50;99.90;;;;;;5051539;28;20212;-80
2022/05/15 03:15:01;;;;;;;3.83;3.17;;;12.50;99.90;;;;;;5051186;28;20240;-81
2022/05/15 03:17:29;;;;;;;5.30;3.53;;;12.40;99.90;;;;;;5047907;28;20654;-75
2022/05/15 03:19:56;;;;;;;5.83;3.30;;;12.50;99.90;;;;;;5031082;28;20243;-74
2022/05/15 03:22:22;;;;;;;4.60;3.17;;;12.40;99.90;;;;;;5033193;28;20197;-74
2022/05/15 03:24:49;;;;;;;6.87;3.80;;;12.40;99.90;;;;;;5050491;28;20224;-74
2022/05/15 03:27:16;;;;;;;3.90;3.17;;;12.30;99.90;;;;;;5050362;28;20215;-74
2022/05/15 03:29:43;;;;;;;5.30;3.20;;;12.30;99.90;;;;;;5033443;28;20236;-74
2022/05/15 03:32:10;;;;;;;5.07;3.43;;;12.30;99.90;;;;;;5030971;28;20204;-74
2022/05/15 03:34:38;;;;;;;3.27;2.90;;;12.20;99.90;;;;;;5030601;28;20213;-73
2022/05/15 03:37:05;;;;;;;4.13;3.30;;;12.30;99.90;;;;;;5030448;28;20255;-74
2022/05/15 03:39:31;;;;;;;5.13;3.00;;;12.30;99.90;;;;;;5039573;28;20204;-73
2022/05/15 03:41:59;;;;;;;4.13;2.80;;;12.30;99.90;;;;;;5049670;28;20223;-74
2022/05/15 03:44:26;;;;;;;4.57;2.70;;;12.20;99.90;;;;;;5050224;28;20215;-74
2022/05/15 03:46:52;;;;;;;6.77;2.83;;;12.20;99.90;;;;;;5050459;28;20205;-74
2022/05/15 03:49:19;;;;;;;3.83;2.70;;;12.20;99.90;;;;;;5042162;28;20208;-74
2022/05/15 03:51:47;;;;;;;4.33;2.83;;;12.10;99.90;;;;;;5046991;28;20236;-74
2022/05/15 03:54:14;;;;;;;3.73;2.93;;;12.20;99.90;;;;;;5042898;28;20205;-74
2022/05/15 03:56:53;;;;;;;5.17;2.97;;;12.10;99.90;;;;;;5049768;28;20231;-76
2022/05/15 03:59:22;;;;;;;3.13;2.80;;;12.10;99.90;;;;;;5049727;28;20196;-76
2022/05/15 04:01:48;;;;;;;6.17;2.80;;;12.20;99.90;;;;;;5049278;28;20204;-76
2022/05/15 04:04:15;;;;;;;7.73;2.90;;;12.20;99.90;;;;;;5049654;28;20836;-76
2022/05/15 04:06:42;;;;;;;3.23;2.57;;;12.20;99.90;;;;;;5050047;28;20234;-76
2022/05/15 04:09:10;;;;;;;5.53;3.07;;;12.00;99.90;;;;;;5049677;28;20774;-76
2022/05/15 04:11:37;;;;;;;6.83;2.83;;;12.00;99.90;;;;;;5049362;28;20236;-76
2022/05/15 04:14:04;;;;;;;4.73;2.70;;;12.10;99.90;;;;;;5042036;28;20201;-76
2022/05/15 04:16:31;;;;;;;6.27;3.23;;;12.10;99.90;;;;;;5029974;28;20262;-76
2022/05/15 04:18:57;;;;;;;4.77;2.90;;;12.20;99.90;;;;;;5049217;28;20236;-73
2022/05/15 04:21:25;;;;;;;4.43;2.87;;;12.20;99.90;;;;;;5049640;28;20196;-74
2022/05/15 04:23:51;;;;;;;4.77;2.77;;;12.30;99.90;;;;;;5049265;28;20234;-73
2022/05/15 04:26:20;;;;;;;4.20;2.83;;;12.30;99.90;;;;;;5046841;28;20208;-74
2022/05/15 04:28:47;;;;;;;10.80;3.20;;;12.40;99.90;;;;;;5029966;28;20204;-74
2022/05/15 04:31:13;;;;;;;5.57;2.73;;;12.40;99.90;;;;;;5029200;28;20964;-73
2022/05/15 04:33:40;;;;;;;5.63;2.63;;;12.40;99.90;;;;;;5041234;28;20222;-73
2022/05/15 04:36:07;;;;;;;4.30;3.10;;;12.40;99.90;;;;;;5049414;28;20222;-76
2022/05/15 04:38:34;;;;;;;6.07;2.93;;;12.50;99.90;;;;;;5048367;28;20216;-76
2022/05/15 04:41:00;;;;;;;6.70;3.10;;;12.50;99.90;;;;;;5049223;28;20626;-76
2022/05/15 04:43:28;;;;;;;3.17;2.53;;;12.60;99.90;;;;;;5048791;28;20663;-80
2022/05/15 04:45:55;;;;;;;3.83;2.83;;;12.60;99.90;;;;;;5049136;28;20212;-76
2022/05/15 04:48:22;;;;;;;3.00;2.27;;;12.40;99.90;;;;;;5030802;28;20549;-76
2022/05/15 04:50:48;;;;;;;4.47;3.10;;;12.40;99.90;;;;;;5049064;28;20240;-76
2022/05/15 04:53:15;;;;;;;4.83;3.07;;;12.40;99.90;;;;;;5044016;28;20208;-76
2022/05/15 04:55:42;;;;;;;6.57;3.33;;;12.50;99.90;;;;;;5028775;28;20263;-78
2022/05/15 04:58:08;;;;;;;7.70;3.03;;;12.60;99.90;;;;;;5029193;28;20209;-78
2022/05/15 05:00:36;;;;;;;5.43;2.87;;;12.70;99.90;;;;;;5029482;28;20805;-78
2022/05/15 05:03:03;;;;;;;5.43;3.00;;;12.60;99.90;;;;;;5030580;28;20212;-75
2022/05/15 05:05:30;;;;;;;7.63;3.40;;;12.70;99.90;;;;;;5048968;28;20270;-75
2022/05/15 05:07:57;;;;;;;3.23;2.77;;;12.80;99.90;;;;;;5049016;28;20208;-75
2022/05/15 05:10:23;;;;;;;4.37;3.00;;;12.80;99.90;;;;;;5042053;28;20637;-75
2022/05/15 05:12:50;;;;;;;3.40;2.63;;;12.80;99.90;;;;;;5028850;28;20263;-75
2022/05/15 05:15:16;;;;;;;4.23;2.37;;;12.80;99.90;;;;;;5043778;28;20630;-75
2022/05/15 05:17:45;;;;;;;4.27;2.90;;;12.80;99.90;;;;;;5044730;28;20208;-76
2022/05/15 05:20:13;;;;;;;4.27;2.80;;;12.80;99.90;;;;;;5048474;28;20250;-75
2022/05/15 05:22:40;;;;;;;4.47;2.50;;;12.70;99.90;;;;;;5044954;28;20209;-76
2022/05/15 05:25:08;;;;;;;6.13;2.23;;;12.70;99.90;;;;;;5028160;28;20215;-76
2022/05/15 05:27:36;;;;;;;4.90;2.47;;;12.70;99.90;;;;;;5028813;28;20702;-77
2022/05/15 05:30:03;;;;;;;3.60;2.30;;;12.60;99.90;;;;;;5028585;28;20635;-77
2022/05/15 05:32:29;;;;;;;5.40;2.47;;;12.70;99.90;;;;;;5028431;28;20298;-77
2022/05/15 05:34:57;;;;;;;2.70;2.07;;;12.80;99.90;;;;;;5028345;28;20278;-77
2022/05/15 05:37:24;;;;;;;4.03;2.17;;;12.90;99.90;;;;;;5038763;28;20225;-86
2022/05/15 05:39:51;;;;;;;3.37;2.07;;;12.90;99.90;;;;;;5034749;28;20200;-78
2022/05/15 05:42:17;;;;;;;4.67;2.73;;;13.10;99.90;;;;;;5038351;28;20220;-78
2022/05/15 05:44:44;;;;;;;4.13;2.07;;;13.20;99.90;;;;;;5048562;28;20239;-78
2022/05/15 05:47:11;;;;;;;2.60;1.90;;;13.10;99.90;;;;;;5048264;28;20208;-78
2022/05/15 05:49:37;;;;;;;3.93;1.80;;;13.10;99.90;;;;;;5048567;28;20206;-78
2022/05/15 05:52:06;;;;;;;2.23;1.90;;;13.20;99.90;;;;;;5037812;28;20703;-80
2022/05/15 05:54:33;;;;;;;1.63;1.47;;;13.30;99.90;;;;;;5046717;28;20208;-80
2022/05/15 05:56:59;;;;;;;3.50;2.10;;;13.20;99.90;;;;;;5048203;28;20221;-79
2022/05/15 05:59:26;;;;;;;3.93;1.90;;;13.30;99.90;;;;;;5048067;28;20200;-80
2022/05/15 06:01:53;;;;;;;4.07;2.20;;;13.40;99.90;;;;;;5048182;28;20208;-79
2022/05/15 06:07:05;;;;;;;2.73;1.63;;;13.60;99.90;;;;;;5037732;28;20239;-80
2022/05/15 06:09:32;;;;;;;3.20;1.63;;;13.60;99.90;;;;;;5027937;28;20208;-83
2022/05/15 06:11:59;;;;;;;2.73;1.53;;;13.70;99.90;;;;;;5027705;28;20241;-74
2022/05/15 06:14:26;;;;;;;3.67;1.53;;;13.70;99.90;;;;;;5036829;28;20211;-74
2022/05/15 06:16:53;;;;;;;4.87;1.90;;;13.80;99.90;;;;;;5027906;28;20204;-74
2022/05/15 06:19:20;;;;;;;2.47;1.47;;;13.80;99.90;;;;;;5027515;28;20239;-74
2022/05/15 06:21:46;;;;;;;5.57;1.67;;;13.80;99.90;;;;;;5027851;28;20291;-75
2022/05/15 06:24:14;;;;;;;4.80;1.80;;;13.90;99.90;;;;;;5043816;28;20204;-75
2022/05/15 06:26:41;;;;;;;2.93;1.33;;;13.90;99.90;;;;;;5047838;28;20275;-74
2022/05/15 06:29:08;;;;;;;1.37;1.23;;;13.80;99.90;;;;;;5047787;28;20223;-74
2022/05/15 06:31:34;;;;;;;3.73;1.40;;;13.90;99.90;;;;;;5047349;28;20235;-74
2022/05/15 06:34:01;;;;;;;3.73;1.63;;;14.00;99.90;;;;;;5039014;28;20258;-74
2022/05/15 06:36:28;;;;;;;5.37;1.53;;;14.00;99.90;;;;;;5047620;28;20371;-74
2022/05/15 06:38:55;;;;;;;1.70;1.30;;;14.00;99.90;;;;;;5047283;28;20269;-73
2022/05/15 06:41:23;;;;;;;1.70;1.17;;;14.00;99.90;;;;;;5045154;28;20199;-74
2022/05/15 06:43:50;;;;;;;3.00;1.20;;;14.10;99.90;;;;;;5027882;28;20258;-73
2022/05/15 06:46:16;;;;;;;4.33;1.30;;;14.10;99.90;;;;;;5027656;28;20294;-74
2022/05/15 06:48:43;;;;;;;2.37;1.33;;;14.10;99.90;;;;;;5027465;28;20201;-73
2022/05/15 06:51:13;;;;;;;1.97;1.30;;;14.20;99.90;;;;;;5027158;28;20232;-74
2022/05/15 06:53:40;;;;;;;1.50;1.20;;;14.20;99.90;;;;;;5027321;28;20204;-73
2022/05/15 06:58:53;;;;;;;3.57;1.40;;;14.40;99.90;;;;;;5031623;28;20199;-74
2022/05/15 07:01:20;;;;;;;3.53;1.70;;;14.40;99.90;;;;;;5046643;28;20204;-73
2022/05/15 07:03:46;;;;;;;4.00;1.50;;;14.40;99.90;;;;;;5033572;28;20233;-74
2022/05/15 07:06:15;;;;;;;2.13;1.03;;;14.40;99.90;;;;;;5027122;28;20205;-74
2022/05/15 07:08:42;;;;;;;4.53;1.60;;;14.40;99.90;;;;;;5027048;28;20204;-74
2022/05/15 07:11:10;;;;;;;3.43;1.30;;;14.40;99.90;;;;;;5028528;28;20236;-74
2022/05/15 07:13:36;;;;;;;2.87;1.57;;;14.40;99.90;;;;;;5029378;28;20714;-77
2022/05/15 07:16:11;;;;;;;3.37;1.50;;;14.50;99.90;;;;;;5046896;28;20655;-77
2022/05/15 07:18:38;;;;;;;3.40;1.50;;;14.50;99.90;;;;;;5049771;28;20247;-77
2022/05/15 07:21:08;;;;;;;7.47;1.57;;;14.50;99.90;;;;;;5050807;28;20211;-77
2022/05/15 07:23:35;;;;;;;4.90;1.47;;;14.60;99.90;;;;;;5050533;28;20204;-77
2022/05/15 07:26:09;;;;;;;5.23;1.70;;;14.60;99.90;;;;;;5050531;28;20215;-78
2022/05/15 07:28:36;;;;;;;2.57;1.20;;;14.60;99.90;;;;;;5050473;28;20654;-78
2022/05/15 07:31:10;;;;;;;2.57;1.40;;;14.70;99.90;;;;;;5050366;28;20196;-77
2022/05/15 07:33:38;;;;;;;1.87;1.00;;;14.70;99.90;;;;;;5050759;28;20192;-77
2022/05/15 07:36:09;;;;;;;3.37;1.40;;;14.70;99.90;;;;;;5050419;28;20200;-77
2022/05/15 07:38:36;;;;;;;4.10;1.70;;;14.80;99.90;;;;;;5041427;28;20256;-77
2022/05/15 07:41:07;;;;;;;2.83;1.70;;;14.80;99.90;;;;;;5030464;28;20213;-77
2022/05/15 07:43:34;;;;;;;8.37;2.03;;;14.90;99.90;;;;;;5030617;28;20203;-77
2022/05/15 07:46:01;;;;;;;4.13;1.57;;;14.90;99.90;;;;;;5030143;28;20216;-77
2022/05/15 07:48:28;;;;;;;3.83;1.57;;;15.00;99.90;;;;;;5030445;28;20205;-77
2022/05/15 07:50:57;;;;;;;3.23;1.60;;;15.00;99.90;;;;;;5030507;28;20259;-77
2022/05/15 07:53:23;;;;;;;4.30;1.83;;;15.10;99.90;;;;;;5030138;28;20270;-75
2022/05/15 07:55:50;;;;;;;3.67;1.60;;;15.10;99.90;;;;;;5030318;28;20216;-76
2022/05/15 07:58:16;;;;;;;3.57;1.70;;;15.10;99.90;;;;;;5039866;28;20283;-76
2022/05/15 08:00:43;;;;;;;2.10;1.70;;;15.00;99.90;;;;;;5030730;28;20204;-75
2022/05/15 08:03:13;;;;;;;4.53;1.47;;;15.00;99.90;;;;;;5030279;28;20213;-75
2022/05/15 08:08:26;;;;;;;3.63;1.53;;;15.20;99.90;;;;;;5029798;28;20196;-76
2022/05/15 08:10:53;;;;;;;4.77;1.97;;;15.30;99.90;;;;;;5030208;28;20205;-76
2022/05/15 08:13:22;;;;;;;3.77;1.50;;;15.30;99.90;;;;;;5030016;28;20308;-76
2022/05/15 08:15:50;;;;;;;2.93;1.03;;;15.40;99.90;;;;;;5029742;28;20219;-76
2022/05/15 08:23:50;;;;;;;2.67;1.47;;;15.60;99.90;;;;;;5041851;28;20211;-76
2022/05/15 08:26:18;;;;;;;1.90;1.20;;;15.50;99.90;;;;;;5042665;28;20560;-76
2022/05/15 08:28:44;;;;;;;3.23;1.40;;;15.60;99.90;;;;;;5048758;28;20243;-76
2022/05/15 08:31:12;;;;;;;4.53;1.47;;;15.60;99.90;;;;;;5047391;28;20695;-76
2022/05/15 08:33:39;;;;;;;3.20;1.30;;;15.60;99.90;;;;;;5049536;28;20208;-76
2022/05/15 08:36:09;;;;;;;2.80;1.20;;;15.70;99.90;;;;;;5049305;28;20207;-76
2022/05/15 08:38:37;;;;;;;8.10;1.70;;;15.80;99.90;;;;;;5049201;28;20222;-75
2022/05/15 08:41:17;;;;;;;1.97;1.00;;;15.90;99.90;;;;;;5033872;28;20721;-77
2022/05/15 08:43:46;;;;;;;4.07;1.23;;;15.90;99.90;;;;;;5046098;28;20212;-77
2022/05/15 08:46:32;;;;;;;1.33;0.90;;;16.00;99.90;;;;;;5029176;28;20213;-77
2022/05/15 08:49:06;;;;;;;2.97;1.37;;;16.00;99.90;;;;;;5032025;28;20193;-77
2022/05/15 08:51:33;;;;;;;2.73;1.07;;;16.10;99.90;;;;;;5043311;28;20673;-77
2022/05/15 08:54:02;;;;;;;1.63;0.93;;;16.10;99.90;;;;;;5033175;28;20212;-78
2022/05/15 08:56:35;;;;;;;17.80;1.67;;;16.20;99.90;;;;;;5034295;28;20742;-84
2022/05/15 08:59:06;;;;;;;4.00;1.10;;;16.30;99.90;;;;;;5035087;28;20192;-84
2022/05/15 09:01:33;;;;;;;1.33;1.03;;;16.40;99.90;;;;;;5048587;28;20192;-86
2022/05/15 09:04:00;;;;;;;1.83;1.13;;;16.50;99.70;;;;;;5049056;28;20231;-85
2022/05/15 09:06:37;;;;;;;1.33;0.73;;;16.60;99.00;;;;;;5048939;28;20281;-76
2022/05/15 09:09:16;;;;;;;1.93;0.80;;;16.60;96.80;;;;;;5048324;28;20210;-75
2022/05/15 09:11:55;;;;;;;1.87;1.07;;;16.60;97.80;;;;;;5047872;28;20216;-75
2022/05/15 09:14:40;;;;;;;1.63;1.00;;;16.70;98.10;;;;;;5048511;28;20308;-75
2022/05/15 09:17:16;;;;;;;1.43;0.90;;;16.80;97.90;;;;;;5048240;28;20201;-75
2022/05/15 09:19:44;;;;;;;5.27;0.93;;;16.90;98.40;;;;;;5047455;28;20255;-75
2022/05/15 09:22:14;;;;;;;1.03;0.83;;;17.00;98.20;;;;;;5045367;28;20247;-75
2022/05/15 09:24:45;;;;;;;2.27;1.00;;;17.00;98.20;;;;;;5046790;28;20685;-75
2022/05/15 09:27:16;;;;;;;1.87;0.73;;;17.00;98.10;;;;;;5047250;28;20196;-76
2022/05/15 09:29:43;;;;;;;3.13;1.20;;;17.20;98.80;;;;;;5027637;28;20644;-78
2022/05/15 09:32:31;;;;;;;1.60;0.97;;;17.30;97.90;;;;;;5036286;28;20369;-78
2022/05/15 09:35:01;;;;;;;1.00;0.90;;;17.20;97.40;;;;;;5037138;28;20246;-79
2022/05/15 09:40:23;;;;;;;1.23;0.93;;;17.40;97.70;;;;;;5024687;28;20212;-78
2022/05/15 09:45:56;;;;;;;2.70;0.90;;;17.40;96.60;;;;;;5026090;28;20224;-78
2022/05/15 09:48:25;;;;;;;1.70;0.80;;;17.60;96.50;;;;;;5026938;28;20205;-78
2022/05/15 09:51:01;;;;;;;4.50;1.10;;;17.70;97.00;;;;;;5044237;28;20204;-78
2022/05/15 09:53:38;;;;;;;1.40;1.13;;;17.70;95.70;;;;;;5025262;28;20231;-76
2022/05/15 09:56:11;;;;;;;1.40;0.87;;;17.70;95.30;;;;;;5024981;28;20197;-76
2022/05/15 09:58:44;;;;;;;2.03;0.90;;;17.80;96.00;;;;;;5025511;28;20205;-75
2022/05/15 10:01:21;;;;;;;1.10;1.00;;;17.90;96.40;;;;;;5024885;28;20193;-76
2022/05/15 10:03:51;;;;;;;5.43;1.20;;;18.00;95.80;;;;;;5044639;28;20223;-76
2022/05/15 10:06:20;;;;;;;2.80;1.17;;;18.10;95.60;;;;;;5044212;28;20740;-76
2022/05/15 10:09:05;;;;;;;1.10;0.90;;;18.20;96.20;;;;;;5044633;28;20250;-76
2022/05/15 10:11:33;;;;;;;1.60;0.83;;;18.30;95.00;;;;;;5043615;28;20573;-75
2022/05/15 10:14:02;;;;;;;2.70;1.00;;;18.30;94.90;;;;;;5038976;28;20781;-76
2022/05/15 10:16:34;;;;;;;1.40;1.00;;;18.30;94.90;;;;;;5024617;28;20209;-76
2022/05/15 10:19:04;;;;;;;0.80;0.77;;;18.30;94.70;;;;;;4993279;28;1026054;-74
2022/05/15 10:21:38;;;;;;;1.50;1.07;;;18.30;94.80;;;;;;5044923;28;20201;-74
2022/05/15 10:24:09;;;;;;;0.90;0.70;;;18.40;93.80;;;;;;5044937;28;20196;-73
2022/05/15 10:26:45;;;;;;;5.87;1.30;;;18.50;94.80;;;;;;5045667;28;20269;-73
2022/05/15 10:29:19;;;;;;;6.63;1.50;;;18.50;94.40;;;;;;5045709;28;20196;-73
2022/05/15 10:31:51;;;;;;;17.87;2.43;;;18.70;94.80;;;;;;5042267;28;20197;-75
2022/05/15 10:34:23;;;;;;;3.03;1.00;;;18.80;94.50;;;;;;5033289;28;20691;-78
2022/05/15 10:37:01;;;;;;;6.97;1.40;;;18.80;94.70;;;;;;5047318;28;20204;-75
2022/05/15 10:39:37;;;;;;;1.37;0.93;;;18.80;95.20;;;;;;5025069;28;20274;-75
2022/05/15 10:42:15;;;;;;;3.07;1.00;;;18.90;93.90;;;;;;5025100;28;20211;-75
2022/05/15 10:44:55;;;;;;;1.33;1.00;;;19.00;94.80;;;;;;5026080;28;20204;-75
2022/05/15 10:47:28;;;;;;;0.87;0.80;;;19.20;93.50;;;;;;5033587;28;20209;-76
2022/05/15 10:50:18;;;;;;;1.70;1.13;;;19.20;93.50;;;;;;5025349;28;20193;-75
2022/05/15 10:52:56;;;;;;;1.70;0.97;;;19.30;93.70;;;;;;5026257;28;20225;-75
2022/05/15 10:58:27;;;;;;;1.03;0.93;;;19.40;93.00;;;;;;5048318;28;20203;-75
2022/05/15 11:01:10;;;;;;;2.43;1.10;;;19.40;92.80;;;;;;5028727;28;20191;-75
2022/05/15 11:03:51;;;;;;;1.23;1.00;;;19.50;91.80;;;;;;5028901;28;20242;-76
2022/05/15 11:06:44;;;;;;;3.63;1.50;;;19.60;92.50;;;;;;5029199;28;20204;-76
2022/05/15 11:09:17;;;;;;;1.13;0.90;;;19.90;92.60;;;;;;5029727;28;20267;-75
2022/05/15 11:11:52;;;;;;;3.60;1.10;;;20.10;92.90;;;;;;5030772;28;20198;-76
2022/05/15 11:14:33;;;;;;;1.90;1.00;;;20.10;92.10;;;;;;5034020;28;20812;-76
2022/05/15 11:17:08;;;;;;;2.33;1.20;;;20.20;91.70;;;;;;5030086;28;20205;-76
2022/05/15 11:19:37;;;;;;;5.07;1.47;;;20.20;91.80;;;;;;5030692;28;20243;-76
2022/05/15 11:22:16;;;;;;;2.40;1.20;;;20.30;92.10;;;;;;5042250;28;20262;-77
2022/05/15 11:24:50;;;;;;;1.20;0.90;;;20.50;92.60;;;;;;5030222;28;20221;-76
2022/05/15 11:27:24;;;;;;;1.17;1.00;;;20.70;92.40;;;;;;5044417;28;20203;-76
2022/05/15 11:29:55;;;;;;;1.00;1.00;;;20.70;91.80;;;;;;5049349;28;20204;-77
2022/05/15 11:32:38;;;;;;;1.00;0.90;;;20.70;91.70;;;;;;5049593;28;20193;-75
2022/05/15 11:35:23;;;;;;;1.00;0.80;;;20.90;91.60;;;;;;5041816;28;20208;-75
2022/05/15 11:38:02;;;;;;;6.47;1.37;;;20.90;91.10;;;;;;5050399;28;20199;-74
2022/05/15 11:40:33;;;;;;;0.90;0.87;;;20.90;90.90;;;;;;5050096;28;20192;-75
2022/05/15 11:43:20;;;;;;;1.00;0.90;;;20.90;90.50;;;;;;5049511;28;20686;-79
2022/05/15 11:45:51;;;;;;;1.10;0.97;;;21.00;90.30;;;;;;5030409;28;20209;-73
2022/05/15 11:48:23;;;;;;;0.93;0.63;;;21.10;90.50;;;;;;5030037;28;20197;-72
2022/05/15 11:50:57;;;;;;;0.70;0.70;;;21.20;90.40;;;;;;5043475;28;20208;-73
2022/05/15 11:53:31;;;;;;;1.23;0.87;;;21.20;90.40;;;;;;5032891;28;20228;-72
2022/05/15 11:55:59;;;;;;;1.13;1.00;;;21.20;90.20;;;;;;5041186;28;20197;-73
2022/05/15 11:58:36;;;;;;;1.63;1.13;;;21.40;90.00;;;;;;5038048;28;20550;-73
2022/05/15 12:01:39;;;;;;;2.20;1.10;;;21.60;90.30;;;;;;5042709;28;20208;-73
2022/05/15 12:04:08;;;;;;;2.03;1.40;;;21.70;89.30;;;;;;5028785;28;20240;-73
2022/05/15 12:06:50;;;;;;;1.43;0.90;;;21.70;88.80;;;;;;5029460;28;20706;-73
2022/05/15 12:09:49;;;;;;;1.85;1.10;;;21.90;88.30;;;;;;5033224;28;20196;-73
2022/05/15 12:12:52;;;;;;;3.43;1.27;;;22.00;87.40;;;;;;5036729;28;20208;-72
2022/05/15 12:15:38;;;;;;;2.33;0.98;;;22.10;88.70;;;;;;5035706;28;20231;-78
2022/05/15 12:18:31;;;;;;;0.80;0.80;;;22.30;88.60;;;;;;5035982;28;20335;-72
2022/05/15 12:20:58;;;;;;;1.55;0.98;;;22.50;86.90;;;;;;5044346;28;20411;-73
2022/05/15 12:23:30;;;;;;;3.10;0.80;;;22.50;86.70;;;;;;5046429;28;20214;-73
2022/05/15 12:25:59;;;;;;;1.30;1.00;;;22.60;88.60;;;;;;5046533;28;20193;-73
2022/05/15 12:28:52;;;;;;;1.58;0.93;;;22.70;87.20;;;;;;5046498;28;20216;-73
2022/05/15 12:31:23;;;;;;;1.17;1.00;;;22.90;88.60;;;;;;5046693;28;20203;-73
2022/05/15 12:33:52;;;;;;;3.20;1.23;;;22.90;85.50;;;;;;5052385;28;20289;-72
2022/05/15 12:36:28;;;;;;;1.23;1.00;;;22.90;84.70;;;;;;5063924;28;20207;-73
2022/05/15 12:38:56;;;;;;;1.10;0.90;;;22.80;83.60;;;;;;5040544;28;20203;-73
2022/05/15 12:41:26;;;;;;;2.10;1.00;;;22.80;84.80;;;;;;5045656;28;20241;-73
2022/05/15 12:43:53;;;;;;;1.00;0.95;;;22.80;84.80;;;;;;5034960;28;20205;-73
2022/05/15 12:46:25;;;;;;;2.45;0.82;;;22.90;84.70;;;;;;5028945;28;20577;-73
2022/05/15 12:48:54;;;;;;;2.28;0.90;;;23.00;84.30;;;;;;5040218;28;20253;-73
2022/05/15 12:51:27;;;;;;;2.45;1.17;;;23.10;85.50;;;;;;5046382;28;20215;-73
2022/05/15 12:53:55;;;;;;;3.50;1.25;;;23.30;85.50;;;;;;5046225;28;21037;-71
2022/05/15 12:56:25;;;;;;;1.80;0.85;;;23.50;86.10;;;;;;5033832;28;20254;-71
2022/05/15 12:58:55;;;;;;;1.35;1.02;;;23.60;85.70;;;;;;5045694;28;20262;-71
2022/05/15 13:01:25;;;;;;;1.27;1.02;;;23.80;84.30;;;;;;5046556;28;20239;-71
2022/05/15 13:03:57;;;;;;;0.98;0.93;;;23.80;82.00;;;;;;5046759;28;20228;-73
2022/05/15 13:06:30;;;;;;;1.52;0.80;;;24.00;82.80;;;;;;5028406;28;20213;-73
2022/05/15 13:09:01;;;;;;;3.13;1.08;;;24.10;82.50;;;;;;5039962;28;20203;-73
2022/05/15 13:11:41;;;;;;;1.83;1.10;;;24.10;82.80;;;;;;5046618;28;20212;-71
2022/05/15 13:14:14;;;;;;;3.50;1.15;;;24.00;82.60;;;;;;5039409;28;20315;-73
2022/05/15 13:16:45;;;;;;;1.30;0.90;;;24.00;81.60;;;;;;5046274;28;20196;-73
2022/05/15 13:19:15;;;;;;;1.45;0.90;;;23.80;81.00;;;;;;5046249;28;20285;-75
2022/05/15 13:21:47;;;;;;;1.45;1.10;;;23.70;81.30;;;;;;5046767;28;20212;-74
2022/05/15 13:24:16;;;;;;;1.10;1.00;;;23.80;82.40;;;;;;5045672;28;20207;-73
2022/05/15 13:26:45;;;;;;;1.17;1.08;;;24.00;80.80;;;;;;5046349;28;20258;-75